sensor_id;sensor_type;location;lat;lon;timestamp;temperature;humidity
49385;DHT22;36795;45.028;38.968;2023-08-06T00:00:14;29.30;52.70
49385;DHT22;36795;45.028;38.968;2023-08-06T00:03:01;29.30;52.90
49385;DHT22;36795;45.028;38.968;2023-08-06T00:05:46;29.20;53.10
49385;DHT22;36795;45.028;38.968;2023-08-06T00:08:33;29.20;53.30
49385;DHT22;36795;45.028;38.968;2023-08-06T00:11:18;29.10;53.40
49385;DHT22;36795;45.028;38.968;2023-08-06T00:14:05;29.10;53.60
49385;DHT22;36795;45.028;38.968;2023-08-06T00:16:50;29.10;53.60
49385;DHT22;36795;45.028;38.968;2023-08-06T00:19:37;29.00;53.60
49385;DHT22;36795;45.028;38.968;2023-08-06T00:22:22;29.00;53.70
49385;DHT22;36795;45.028;38.968;2023-08-06T00:25:08;29.00;53.70
49385;DHT22;36795;45.028;38.968;2023-08-06T00:27:54;29.00;53.70
49385;DHT22;36795;45.028;38.968;2023-08-06T00:30:42;29.00;53.80
49385;DHT22;36795;45.028;38.968;2023-08-06T00:33:27;28.90;53.70
49385;DHT22;36795;45.028;38.968;2023-08-06T00:36:14;28.90;53.60
49385;DHT22;36795;45.028;38.968;2023-08-06T00:39:00;28.90;53.60
49385;DHT22;36795;45.028;38.968;2023-08-06T00:41:46;28.90;53.60
49385;DHT22;36795;45.028;38.968;2023-08-06T00:44:32;28.90;53.60
49385;DHT22;36795;45.028;38.968;2023-08-06T00:47:18;28.90;53.50
49385;DHT22;36795;45.028;38.968;2023-08-06T00:50:06;28.80;53.40
49385;DHT22;36795;45.028;38.968;2023-08-06T00:52:53;28.80;53.40
49385;DHT22;36795;45.028;38.968;2023-08-06T00:55:40;28.80;53.50
49385;DHT22;36795;45.028;38.968;2023-08-06T00:58:27;28.80;53.60
49385;DHT22;36795;45.028;38.968;2023-08-06T01:01:13;28.80;53.70
49385;DHT22;36795;45.028;38.968;2023-08-06T01:04:00;28.70;53.70
49385;DHT22;36795;45.028;38.968;2023-08-06T01:10:06;28.60;53.80
49385;DHT22;36795;45.028;38.968;2023-08-06T01:16:02;28.60;53.90
49385;DHT22;36795;45.028;38.968;2023-08-06T01:18:50;28.60;54.00
49385;DHT22;36795;45.028;38.968;2023-08-06T01:21:37;28.60;53.90
49385;DHT22;36795;45.028;38.968;2023-08-06T01:24:22;28.60;54.00
49385;DHT22;36795;45.028;38.968;2023-08-06T01:27:14;28.50;54.10
49385;DHT22;36795;45.028;38.968;2023-08-06T01:30:09;28.50;54.20
49385;DHT22;36795;45.028;38.968;2023-08-06T01:33:02;28.40;54.30
49385;DHT22;36795;45.028;38.968;2023-08-06T01:35:50;28.40;54.40
49385;DHT22;36795;45.028;38.968;2023-08-06T01:38:37;28.40;54.60
49385;DHT22;36795;45.028;38.968;2023-08-06T01:41:23;28.30;54.50
49385;DHT22;36795;45.028;38.968;2023-08-06T01:44:09;28.30;54.70
49385;DHT22;36795;45.028;38.968;2023-08-06T01:46:55;28.30;54.70
49385;DHT22;36795;45.028;38.968;2023-08-06T01:49:41;28.30;54.80
49385;DHT22;36795;45.028;38.968;2023-08-06T01:52:27;28.30;54.90
49385;DHT22;36795;45.028;38.968;2023-08-06T01:55:13;28.30;55.00
49385;DHT22;36795;45.028;38.968;2023-08-06T01:57:59;28.30;55.10
49385;DHT22;36795;45.028;38.968;2023-08-06T02:00:46;28.20;55.10
49385;DHT22;36795;45.028;38.968;2023-08-06T02:03:32;28.20;55.30
49385;DHT22;36795;45.028;38.968;2023-08-06T02:06:17;28.20;55.30
49385;DHT22;36795;45.028;38.968;2023-08-06T02:09:05;28.20;55.30
49385;DHT22;36795;45.028;38.968;2023-08-06T02:11:51;28.20;55.20
49385;DHT22;36795;45.028;38.968;2023-08-06T02:14:37;28.20;55.20
49385;DHT22;36795;45.028;38.968;2023-08-06T02:17:24;28.10;55.30
49385;DHT22;36795;45.028;38.968;2023-08-06T02:20:10;28.10;55.40
49385;DHT22;36795;45.028;38.968;2023-08-06T02:22:56;28.10;55.40
49385;DHT22;36795;45.028;38.968;2023-08-06T02:25:42;28.10;55.40
49385;DHT22;36795;45.028;38.968;2023-08-06T02:28:29;28.10;55.40
49385;DHT22;36795;45.028;38.968;2023-08-06T02:31:15;28.10;55.50
49385;DHT22;36795;45.028;38.968;2023-08-06T02:34:01;28.00;55.90
49385;DHT22;36795;45.028;38.968;2023-08-06T02:36:47;28.00;56.00
49385;DHT22;36795;45.028;38.968;2023-08-06T02:39:34;27.90;56.10
49385;DHT22;36795;45.028;38.968;2023-08-06T02:42:21;27.90;56.10
49385;DHT22;36795;45.028;38.968;2023-08-06T02:45:07;27.90;56.10
49385;DHT22;36795;45.028;38.968;2023-08-06T02:47:53;27.90;56.20
49385;DHT22;36795;45.028;38.968;2023-08-06T02:50:43;27.90;56.20
49385;DHT22;36795;45.028;38.968;2023-08-06T02:53:30;27.90;56.30
49385;DHT22;36795;45.028;38.968;2023-08-06T02:56:17;27.90;56.40
49385;DHT22;36795;45.028;38.968;2023-08-06T02:59:05;28.00;56.30
49385;DHT22;36795;45.028;38.968;2023-08-06T03:01:51;28.00;56.40
49385;DHT22;36795;45.028;38.968;2023-08-06T03:04:38;28.00;56.50
49385;DHT22;36795;45.028;38.968;2023-08-06T03:07:25;28.00;56.50
49385;DHT22;36795;45.028;38.968;2023-08-06T03:10:11;27.90;56.40
49385;DHT22;36795;45.028;38.968;2023-08-06T03:12:57;28.00;56.50
49385;DHT22;36795;45.028;38.968;2023-08-06T03:15:51;28.00;56.60
49385;DHT22;36795;45.028;38.968;2023-08-06T03:18:37;28.00;56.50
49385;DHT22;36795;45.028;38.968;2023-08-06T03:21:24;28.10;56.50
49385;DHT22;36795;45.028;38.968;2023-08-06T03:24:11;28.20;56.30
49385;DHT22;36795;45.028;38.968;2023-08-06T03:26:57;28.20;56.20
49385;DHT22;36795;45.028;38.968;2023-08-06T03:29:44;28.20;56.20
49385;DHT22;36795;45.028;38.968;2023-08-06T03:32:30;28.20;56.20
49385;DHT22;36795;45.028;38.968;2023-08-06T03:35:17;28.20;56.00
49385;DHT22;36795;45.028;38.968;2023-08-06T03:38:03;28.30;55.90
49385;DHT22;36795;45.028;38.968;2023-08-06T03:40:49;28.30;55.70
49385;DHT22;36795;45.028;38.968;2023-08-06T03:43:35;28.40;55.60
49385;DHT22;36795;45.028;38.968;2023-08-06T03:46:22;28.40;55.50
49385;DHT22;36795;45.028;38.968;2023-08-06T03:49:08;28.50;55.30
49385;DHT22;36795;45.028;38.968;2023-08-06T03:51:54;28.50;55.10
49385;DHT22;36795;45.028;38.968;2023-08-06T03:54:40;28.60;54.90
49385;DHT22;36795;45.028;38.968;2023-08-06T03:57:29;28.60;54.90
49385;DHT22;36795;45.028;38.968;2023-08-06T04:00:15;28.60;54.70
49385;DHT22;36795;45.028;38.968;2023-08-06T04:03:00;28.60;54.60
49385;DHT22;36795;45.028;38.968;2023-08-06T04:05:48;28.70;54.50
49385;DHT22;36795;45.028;38.968;2023-08-06T04:08:33;28.80;54.50
49385;DHT22;36795;45.028;38.968;2023-08-06T04:11:21;28.80;54.50
49385;DHT22;36795;45.028;38.968;2023-08-06T04:14:07;28.80;54.40
49385;DHT22;36795;45.028;38.968;2023-08-06T04:16:53;28.80;54.40
49385;DHT22;36795;45.028;38.968;2023-08-06T04:19:39;28.70;54.30
49385;DHT22;36795;45.028;38.968;2023-08-06T04:22:26;28.80;54.20
49385;DHT22;36795;45.028;38.968;2023-08-06T04:25:12;28.70;54.10
49385;DHT22;36795;45.028;38.968;2023-08-06T04:27:58;28.80;54.00
49385;DHT22;36795;45.028;38.968;2023-08-06T04:30:46;28.90;53.90
49385;DHT22;36795;45.028;38.968;2023-08-06T04:33:33;28.80;53.90
49385;DHT22;36795;45.028;38.968;2023-08-06T04:36:19;28.80;54.00
49385;DHT22;36795;45.028;38.968;2023-08-06T04:39:05;28.90;53.90
49385;DHT22;36795;45.028;38.968;2023-08-06T04:41:51;29.00;53.60
49385;DHT22;36795;45.028;38.968;2023-08-06T04:44:38;28.90;53.60
49385;DHT22;36795;45.028;38.968;2023-08-06T04:47:24;28.90;53.50
49385;DHT22;36795;45.028;38.968;2023-08-06T04:50:11;29.00;53.40
49385;DHT22;36795;45.028;38.968;2023-08-06T04:52:57;29.20;53.20
49385;DHT22;36795;45.028;38.968;2023-08-06T04:55:43;29.20;53.00
49385;DHT22;36795;45.028;38.968;2023-08-06T04:58:29;29.20;52.90
49385;DHT22;36795;45.028;38.968;2023-08-06T05:01:15;29.30;52.80
49385;DHT22;36795;45.028;38.968;2023-08-06T05:04:01;29.50;52.60
49385;DHT22;36795;45.028;38.968;2023-08-06T05:06:48;29.60;52.20
49385;DHT22;36795;45.028;38.968;2023-08-06T05:09:34;29.60;52.00
49385;DHT22;36795;45.028;38.968;2023-08-06T05:12:20;29.50;52.30
49385;DHT22;36795;45.028;38.968;2023-08-06T05:15:06;29.50;52.20
49385;DHT22;36795;45.028;38.968;2023-08-06T05:17:53;29.60;52.30
49385;DHT22;36795;45.028;38.968;2023-08-06T05:20:40;29.70;52.40
49385;DHT22;36795;45.028;38.968;2023-08-06T05:23:26;29.70;52.10
49385;DHT22;36795;45.028;38.968;2023-08-06T05:26:12;29.70;52.00
49385;DHT22;36795;45.028;38.968;2023-08-06T05:29:01;29.90;51.80
49385;DHT22;36795;45.028;38.968;2023-08-06T05:31:46;29.90;51.50
49385;DHT22;36795;45.028;38.968;2023-08-06T05:34:33;30.00;51.10
49385;DHT22;36795;45.028;38.968;2023-08-06T05:37:18;30.10;51.10
49385;DHT22;36795;45.028;38.968;2023-08-06T05:40:05;30.20;51.10
49385;DHT22;36795;45.028;38.968;2023-08-06T05:42:54;30.30;50.80
49385;DHT22;36795;45.028;38.968;2023-08-06T05:45:45;30.30;50.40
49385;DHT22;36795;45.028;38.968;2023-08-06T05:48:31;30.30;50.40
49385;DHT22;36795;45.028;38.968;2023-08-06T05:51:18;30.30;50.50
49385;DHT22;36795;45.028;38.968;2023-08-06T05:54:04;30.40;50.30
49385;DHT22;36795;45.028;38.968;2023-08-06T05:56:51;30.50;50.10
49385;DHT22;36795;45.028;38.968;2023-08-06T05:59:36;30.60;49.90
49385;DHT22;36795;45.028;38.968;2023-08-06T06:02:23;30.70;49.60
49385;DHT22;36795;45.028;38.968;2023-08-06T06:05:09;30.80;49.00
49385;DHT22;36795;45.028;38.968;2023-08-06T06:07:54;30.80;49.10
49385;DHT22;36795;45.028;38.968;2023-08-06T06:10:41;30.80;48.90
49385;DHT22;36795;45.028;38.968;2023-08-06T06:13:27;30.80;48.60
49385;DHT22;36795;45.028;38.968;2023-08-06T06:16:13;30.90;48.20
49385;DHT22;36795;45.028;38.968;2023-08-06T06:18:58;31.00;48.00
49385;DHT22;36795;45.028;38.968;2023-08-06T06:21:45;31.20;47.90
49385;DHT22;36795;45.028;38.968;2023-08-06T06:24:30;31.30;47.40
49385;DHT22;36795;45.028;38.968;2023-08-06T06:27:17;31.40;47.10
49385;DHT22;36795;45.028;38.968;2023-08-06T06:30:03;31.50;46.70
49385;DHT22;36795;45.028;38.968;2023-08-06T06:32:50;31.50;46.60
49385;DHT22;36795;45.028;38.968;2023-08-06T06:35:37;31.50;46.50
49385;DHT22;36795;45.028;38.968;2023-08-06T06:38:23;31.60;46.30
49385;DHT22;36795;45.028;38.968;2023-08-06T06:41:08;31.70;46.70
49385;DHT22;36795;45.028;38.968;2023-08-06T06:43:54;31.90;46.40
49385;DHT22;36795;45.028;38.968;2023-08-06T06:46:41;32.00;46.20
49385;DHT22;36795;45.028;38.968;2023-08-06T06:49:27;32.10;45.70
49385;DHT22;36795;45.028;38.968;2023-08-06T06:52:13;32.20;45.60
49385;DHT22;36795;45.028;38.968;2023-08-06T06:55:00;32.30;45.50
49385;DHT22;36795;45.028;38.968;2023-08-06T06:57:46;32.40;45.30
49385;DHT22;36795;45.028;38.968;2023-08-06T07:00:35;32.50;45.10
49385;DHT22;36795;45.028;38.968;2023-08-06T07:03:21;32.60;44.90
49385;DHT22;36795;45.028;38.968;2023-08-06T07:06:07;32.70;44.70
49385;DHT22;36795;45.028;38.968;2023-08-06T07:08:53;32.80;44.40
49385;DHT22;36795;45.028;38.968;2023-08-06T07:11:39;32.80;44.30
49385;DHT22;36795;45.028;38.968;2023-08-06T07:14:29;32.80;44.10
49385;DHT22;36795;45.028;38.968;2023-08-06T07:17:15;32.80;44.00
49385;DHT22;36795;45.028;38.968;2023-08-06T07:20:01;32.80;44.00
49385;DHT22;36795;45.028;38.968;2023-08-06T07:22:47;32.90;44.10
49385;DHT22;36795;45.028;38.968;2023-08-06T07:25:33;33.10;43.70
49385;DHT22;36795;45.028;38.968;2023-08-06T07:28:19;33.20;43.60
49385;DHT22;36795;45.028;38.968;2023-08-06T07:31:05;33.40;43.40
49385;DHT22;36795;45.028;38.968;2023-08-06T07:33:51;33.50;43.10
49385;DHT22;36795;45.028;38.968;2023-08-06T07:36:38;33.70;42.90
49385;DHT22;36795;45.028;38.968;2023-08-06T07:39:24;33.90;42.20
49385;DHT22;36795;45.028;38.968;2023-08-06T07:42:10;34.00;42.20
49385;DHT22;36795;45.028;38.968;2023-08-06T07:44:58;34.20;42.30
49385;DHT22;36795;45.028;38.968;2023-08-06T07:47:44;34.60;41.50
49385;DHT22;36795;45.028;38.968;2023-08-06T07:50:30;35.10;41.10
49385;DHT22;36795;45.028;38.968;2023-08-06T07:53:16;35.60;40.40
49385;DHT22;36795;45.028;38.968;2023-08-06T07:56:03;36.30;39.70
49385;DHT22;36795;45.028;38.968;2023-08-06T07:58:49;36.60;38.90
49385;DHT22;36795;45.028;38.968;2023-08-06T08:01:35;36.70;38.50
49385;DHT22;36795;45.028;38.968;2023-08-06T08:04:21;37.10;37.70
49385;DHT22;36795;45.028;38.968;2023-08-06T08:07:09;38.10;37.00
49385;DHT22;36795;45.028;38.968;2023-08-06T08:09:55;38.70;36.10
49385;DHT22;36795;45.028;38.968;2023-08-06T08:12:41;38.90;35.60
49385;DHT22;36795;45.028;38.968;2023-08-06T08:15:29;38.80;35.60
49385;DHT22;36795;45.028;38.968;2023-08-06T08:18:15;38.40;35.90
49385;DHT22;36795;45.028;38.968;2023-08-06T08:21:01;38.10;36.10
49385;DHT22;36795;45.028;38.968;2023-08-06T08:23:46;37.60;37.00
49385;DHT22;36795;45.028;38.968;2023-08-06T08:26:33;37.30;37.40
49385;DHT22;36795;45.028;38.968;2023-08-06T08:29:21;37.00;37.40
49385;DHT22;36795;45.028;38.968;2023-08-06T08:32:08;36.90;38.10
49385;DHT22;36795;45.028;38.968;2023-08-06T08:34:53;36.90;37.60
49385;DHT22;36795;45.028;38.968;2023-08-06T08:37:40;36.80;37.50
49385;DHT22;36795;45.028;38.968;2023-08-06T08:40:32;36.90;37.60
49385;DHT22;36795;45.028;38.968;2023-08-06T08:43:22;37.10;37.30
49385;DHT22;36795;45.028;38.968;2023-08-06T08:46:09;37.30;37.30
49385;DHT22;36795;45.028;38.968;2023-08-06T08:48:56;37.20;37.50
49385;DHT22;36795;45.028;38.968;2023-08-06T08:51:43;37.10;37.50
49385;DHT22;36795;45.028;38.968;2023-08-06T08:54:32;37.00;37.80
49385;DHT22;36795;45.028;38.968;2023-08-06T08:57:20;36.90;38.10
49385;DHT22;36795;45.028;38.968;2023-08-06T09:00:07;36.80;38.50
49385;DHT22;36795;45.028;38.968;2023-08-06T09:02:54;36.80;38.60
49385;DHT22;36795;45.028;38.968;2023-08-06T09:05:44;37.10;38.40
49385;DHT22;36795;45.028;38.968;2023-08-06T09:08:39;37.30;38.00
49385;DHT22;36795;45.028;38.968;2023-08-06T09:11:27;37.80;37.40
49385;DHT22;36795;45.028;38.968;2023-08-06T09:14:17;38.50;36.50
49385;DHT22;36795;45.028;38.968;2023-08-06T09:17:04;39.00;35.90
49385;DHT22;36795;45.028;38.968;2023-08-06T09:19:51;39.60;35.20
49385;DHT22;36795;45.028;38.968;2023-08-06T09:22:37;40.00;34.70
49385;DHT22;36795;45.028;38.968;2023-08-06T09:25:24;40.30;34.40
49385;DHT22;36795;45.028;38.968;2023-08-06T09:28:12;40.30;34.40
49385;DHT22;36795;45.028;38.968;2023-08-06T09:30:59;39.70;34.80
49385;DHT22;36795;45.028;38.968;2023-08-06T09:33:47;39.20;35.20
49385;DHT22;36795;45.028;38.968;2023-08-06T09:36:35;38.80;35.10
49385;DHT22;36795;45.028;38.968;2023-08-06T09:39:30;38.50;35.80
49385;DHT22;36795;45.028;38.968;2023-08-06T09:42:16;38.20;36.00
49385;DHT22;36795;45.028;38.968;2023-08-06T09:45:08;37.80;35.60
49385;DHT22;36795;45.028;38.968;2023-08-06T09:47:57;37.80;36.00
49385;DHT22;36795;45.028;38.968;2023-08-06T09:50:44;37.70;36.10
49385;DHT22;36795;45.028;38.968;2023-08-06T09:53:33;37.80;35.60
49385;DHT22;36795;45.028;38.968;2023-08-06T09:56:21;37.80;35.10
49385;DHT22;36795;45.028;38.968;2023-08-06T09:59:07;37.90;35.20
49385;DHT22;36795;45.028;38.968;2023-08-06T10:01:54;37.90;35.00
49385;DHT22;36795;45.028;38.968;2023-08-06T10:04:45;38.10;35.30
49385;DHT22;36795;45.028;38.968;2023-08-06T10:07:33;38.20;35.10
49385;DHT22;36795;45.028;38.968;2023-08-06T10:10:19;38.30;34.80
49385;DHT22;36795;45.028;38.968;2023-08-06T10:13:07;38.50;34.70
49385;DHT22;36795;45.028;38.968;2023-08-06T10:15:54;38.50;34.50
49385;DHT22;36795;45.028;38.968;2023-08-06T10:18:40;38.60;34.50
49385;DHT22;36795;45.028;38.968;2023-08-06T10:21:26;38.60;34.50
49385;DHT22;36795;45.028;38.968;2023-08-06T10:24:14;38.60;34.30
49385;DHT22;36795;45.028;38.968;2023-08-06T10:27:00;38.60;34.00
49385;DHT22;36795;45.028;38.968;2023-08-06T10:29:46;38.60;34.00
49385;DHT22;36795;45.028;38.968;2023-08-06T10:33:02;38.70;33.90
49385;DHT22;36795;45.028;38.968;2023-08-06T10:35:49;38.70;33.70
49385;DHT22;36795;45.028;38.968;2023-08-06T10:38:44;38.70;33.70
49385;DHT22;36795;45.028;38.968;2023-08-06T10:41:30;38.70;33.90
49385;DHT22;36795;45.028;38.968;2023-08-06T10:44:17;38.60;33.90
49385;DHT22;36795;45.028;38.968;2023-08-06T10:47:28;38.70;34.10
49385;DHT22;36795;45.028;38.968;2023-08-06T10:50:16;38.80;33.80
49385;DHT22;36795;45.028;38.968;2023-08-06T10:53:06;38.70;34.20
49385;DHT22;36795;45.028;38.968;2023-08-06T10:55:52;38.70;34.10
49385;DHT22;36795;45.028;38.968;2023-08-06T10:58:38;38.70;34.10
49385;DHT22;36795;45.028;38.968;2023-08-06T11:01:28;38.70;34.40
49385;DHT22;36795;45.028;38.968;2023-08-06T11:04:15;38.80;34.10
49385;DHT22;36795;45.028;38.968;2023-08-06T11:07:02;38.80;34.50
49385;DHT22;36795;45.028;38.968;2023-08-06T11:09:50;38.90;34.00
49385;DHT22;36795;45.028;38.968;2023-08-06T11:12:39;39.00;33.90
49385;DHT22;36795;45.028;38.968;2023-08-06T11:15:25;38.90;33.90
49385;DHT22;36795;45.028;38.968;2023-08-06T11:18:11;39.00;33.90
49385;DHT22;36795;45.028;38.968;2023-08-06T11:21:01;39.00;33.90
49385;DHT22;36795;45.028;38.968;2023-08-06T11:23:48;39.10;33.90
49385;DHT22;36795;45.028;38.968;2023-08-06T11:26:33;39.00;33.90
49385;DHT22;36795;45.028;38.968;2023-08-06T11:29:22;38.90;33.90
49385;DHT22;36795;45.028;38.968;2023-08-06T11:32:09;38.90;33.90
49385;DHT22;36795;45.028;38.968;2023-08-06T11:34:56;38.80;34.10
49385;DHT22;36795;45.028;38.968;2023-08-06T11:37:45;38.70;34.00
49385;DHT22;36795;45.028;38.968;2023-08-06T11:40:32;38.80;34.10
49385;DHT22;36795;45.028;38.968;2023-08-06T11:43:19;38.70;34.10
49385;DHT22;36795;45.028;38.968;2023-08-06T11:46:08;38.80;34.30
49385;DHT22;36795;45.028;38.968;2023-08-06T11:48:58;38.90;34.30
49385;DHT22;36795;45.028;38.968;2023-08-06T11:51:45;39.10;34.20
49385;DHT22;36795;45.028;38.968;2023-08-06T11:54:32;39.00;33.90
49385;DHT22;36795;45.028;38.968;2023-08-06T11:57:22;39.10;34.00
49385;DHT22;36795;45.028;38.968;2023-08-06T12:00:13;39.20;34.40
49385;DHT22;36795;45.028;38.968;2023-08-06T12:03:01;39.20;33.90
49385;DHT22;36795;45.028;38.968;2023-08-06T12:05:47;39.30;33.80
49385;DHT22;36795;45.028;38.968;2023-08-06T12:08:33;39.50;33.50
49385;DHT22;36795;45.028;38.968;2023-08-06T12:11:23;39.70;33.30
49385;DHT22;36795;45.028;38.968;2023-08-06T12:14:09;40.00;33.60
49385;DHT22;36795;45.028;38.968;2023-08-06T12:16:55;40.20;33.40
49385;DHT22;36795;45.028;38.968;2023-08-06T12:19:41;40.10;33.30
49385;DHT22;36795;45.028;38.968;2023-08-06T12:22:27;39.90;33.60
49385;DHT22;36795;45.028;38.968;2023-08-06T12:25:13;39.70;33.60
49385;DHT22;36795;45.028;38.968;2023-08-06T12:27:59;39.70;33.60
49385;DHT22;36795;45.028;38.968;2023-08-06T12:30:46;39.70;33.60
49385;DHT22;36795;45.028;38.968;2023-08-06T12:33:32;40.10;33.60
49385;DHT22;36795;45.028;38.968;2023-08-06T12:36:18;40.60;33.30
49385;DHT22;36795;45.028;38.968;2023-08-06T12:39:04;41.10;32.80
49385;DHT22;36795;45.028;38.968;2023-08-06T12:41:50;41.20;32.60
49385;DHT22;36795;45.028;38.968;2023-08-06T12:44:36;41.00;32.50
49385;DHT22;36795;45.028;38.968;2023-08-06T12:47:22;40.50;33.00
49385;DHT22;36795;45.028;38.968;2023-08-06T12:50:08;40.20;33.40
49385;DHT22;36795;45.028;38.968;2023-08-06T12:52:54;39.90;33.60
49385;DHT22;36795;45.028;38.968;2023-08-06T12:55:41;39.80;33.70
49385;DHT22;36795;45.028;38.968;2023-08-06T12:58:28;39.80;33.50
49385;DHT22;36795;45.028;38.968;2023-08-06T13:01:14;39.80;33.20
49385;DHT22;36795;45.028;38.968;2023-08-06T13:04:00;39.70;33.00
49385;DHT22;36795;45.028;38.968;2023-08-06T13:06:46;39.50;32.90
49385;DHT22;36795;45.028;38.968;2023-08-06T13:09:32;39.40;33.10
49385;DHT22;36795;45.028;38.968;2023-08-06T13:12:18;39.40;33.20
49385;DHT22;36795;45.028;38.968;2023-08-06T13:15:06;39.60;33.20
49385;DHT22;36795;45.028;38.968;2023-08-06T13:17:52;39.60;33.00
49385;DHT22;36795;45.028;38.968;2023-08-06T13:20:39;39.60;33.20
49385;DHT22;36795;45.028;38.968;2023-08-06T13:23:27;39.70;33.30
49385;DHT22;36795;45.028;38.968;2023-08-06T13:26:14;39.80;33.30
49385;DHT22;36795;45.028;38.968;2023-08-06T13:29:01;39.80;33.30
49385;DHT22;36795;45.028;38.968;2023-08-06T13:31:47;39.70;33.70
49385;DHT22;36795;45.028;38.968;2023-08-06T13:34:33;39.70;33.40
49385;DHT22;36795;45.028;38.968;2023-08-06T13:37:19;39.70;33.60
49385;DHT22;36795;45.028;38.968;2023-08-06T13:40:06;40.00;33.60
49385;DHT22;36795;45.028;38.968;2023-08-06T13:42:53;40.30;33.00
49385;DHT22;36795;45.028;38.968;2023-08-06T13:45:39;40.60;32.90
49385;DHT22;36795;45.028;38.968;2023-08-06T13:48:25;41.20;32.80
49385;DHT22;36795;45.028;38.968;2023-08-06T13:51:12;41.60;32.40
49385;DHT22;36795;45.028;38.968;2023-08-06T13:53:58;42.50;31.60
49385;DHT22;36795;45.028;38.968;2023-08-06T13:56:44;43.20;30.80
49385;DHT22;36795;45.028;38.968;2023-08-06T14:18:55;43.60;30.50
49385;DHT22;36795;45.028;38.968;2023-08-06T14:21:41;45.20;29.90
49385;DHT22;36795;45.028;38.968;2023-08-06T14:24:27;45.50;29.60
49385;DHT22;36795;45.028;38.968;2023-08-06T14:27:13;45.40;29.40
49385;DHT22;36795;45.028;38.968;2023-08-06T14:29:59;45.10;29.60
49385;DHT22;36795;45.028;38.968;2023-08-06T14:32:46;44.40;29.80
49385;DHT22;36795;45.028;38.968;2023-08-06T14:35:31;43.60;30.10
49385;DHT22;36795;45.028;38.968;2023-08-06T14:38:18;43.40;30.30
49385;DHT22;36795;45.028;38.968;2023-08-06T14:41:03;43.40;30.40
49385;DHT22;36795;45.028;38.968;2023-08-06T14:43:50;43.30;30.40
49385;DHT22;36795;45.028;38.968;2023-08-06T14:46:36;43.30;30.50
49385;DHT22;36795;45.028;38.968;2023-08-06T14:49:23;43.00;30.70
49385;DHT22;36795;45.028;38.968;2023-08-06T14:52:09;42.10;31.80
49385;DHT22;36795;45.028;38.968;2023-08-06T14:54:55;41.60;32.20
49385;DHT22;36795;45.028;38.968;2023-08-06T14:57:41;41.50;32.30
49385;DHT22;36795;45.028;38.968;2023-08-06T15:00:28;41.60;32.30
49385;DHT22;36795;45.028;38.968;2023-08-06T15:03:13;41.70;32.20
49385;DHT22;36795;45.028;38.968;2023-08-06T15:06:00;41.80;32.30
49385;DHT22;36795;45.028;38.968;2023-08-06T15:08:46;42.10;32.10
49385;DHT22;36795;45.028;38.968;2023-08-06T15:11:33;42.10;32.20
49385;DHT22;36795;45.028;38.968;2023-08-06T15:14:19;42.00;32.40
49385;DHT22;36795;45.028;38.968;2023-08-06T15:17:05;42.00;32.40
49385;DHT22;36795;45.028;38.968;2023-08-06T15:19:51;41.90;32.50
49385;DHT22;36795;45.028;38.968;2023-08-06T15:22:37;41.50;32.90
49385;DHT22;36795;45.028;38.968;2023-08-06T15:25:23;40.90;33.40
49385;DHT22;36795;45.028;38.968;2023-08-06T15:28:09;40.20;34.10
49385;DHT22;36795;45.028;38.968;2023-08-06T15:30:55;39.80;34.80
49385;DHT22;36795;45.028;38.968;2023-08-06T15:33:41;39.30;35.10
49385;DHT22;36795;45.028;38.968;2023-08-06T15:36:27;39.00;35.70
49385;DHT22;36795;45.028;38.968;2023-08-06T15:39:13;38.70;36.10
49385;DHT22;36795;45.028;38.968;2023-08-06T15:41:59;38.50;36.50
49385;DHT22;36795;45.028;38.968;2023-08-06T15:44:45;38.40;36.70
49385;DHT22;36795;45.028;38.968;2023-08-06T15:47:31;38.20;36.80
49385;DHT22;36795;45.028;38.968;2023-08-06T15:50:17;38.00;37.00
49385;DHT22;36795;45.028;38.968;2023-08-06T15:53:03;37.90;37.40
49385;DHT22;36795;45.028;38.968;2023-08-06T15:55:49;37.80;37.60
49385;DHT22;36795;45.028;38.968;2023-08-06T15:58:35;37.60;37.90
49385;DHT22;36795;45.028;38.968;2023-08-06T16:01:21;37.50;38.10
49385;DHT22;36795;45.028;38.968;2023-08-06T16:04:07;37.50;38.30
49385;DHT22;36795;45.028;38.968;2023-08-06T16:06:53;37.40;38.60
49385;DHT22;36795;45.028;38.968;2023-08-06T16:09:40;37.30;38.90
49385;DHT22;36795;45.028;38.968;2023-08-06T16:12:25;37.20;39.00
49385;DHT22;36795;45.028;38.968;2023-08-06T16:15:12;37.10;39.20
49385;DHT22;36795;45.028;38.968;2023-08-06T16:18:00;37.00;39.30
49385;DHT22;36795;45.028;38.968;2023-08-06T16:20:47;36.90;39.50
49385;DHT22;36795;45.028;38.968;2023-08-06T16:23:33;36.80;39.70
49385;DHT22;36795;45.028;38.968;2023-08-06T16:26:19;36.80;39.90
49385;DHT22;36795;45.028;38.968;2023-08-06T16:29:05;36.70;39.90
49385;DHT22;36795;45.028;38.968;2023-08-06T16:31:51;36.70;40.10
49385;DHT22;36795;45.028;38.968;2023-08-06T16:34:38;36.60;40.20
49385;DHT22;36795;45.028;38.968;2023-08-06T16:37:24;36.50;40.40
49385;DHT22;36795;45.028;38.968;2023-08-06T16:40:10;36.40;40.60
49385;DHT22;36795;45.028;38.968;2023-08-06T16:42:56;36.30;40.70
49385;DHT22;36795;45.028;38.968;2023-08-06T16:45:43;36.20;40.80
49385;DHT22;36795;45.028;38.968;2023-08-06T16:48:29;36.20;41.10
49385;DHT22;36795;45.028;38.968;2023-08-06T16:51:16;36.10;41.20
49385;DHT22;36795;45.028;38.968;2023-08-06T16:54:02;36.00;41.30
49385;DHT22;36795;45.028;38.968;2023-08-06T16:56:48;36.00;41.40
49385;DHT22;36795;45.028;38.968;2023-08-06T16:59:34;35.90;41.50
49385;DHT22;36795;45.028;38.968;2023-08-06T17:02:20;35.90;41.50
49385;DHT22;36795;45.028;38.968;2023-08-06T17:05:07;35.80;41.60
49385;DHT22;36795;45.028;38.968;2023-08-06T17:07:52;35.80;41.70
49385;DHT22;36795;45.028;38.968;2023-08-06T17:10:39;35.70;41.70
49385;DHT22;36795;45.028;38.968;2023-08-06T17:13:25;35.60;41.60
49385;DHT22;36795;45.028;38.968;2023-08-06T17:16:11;35.60;41.50
49385;DHT22;36795;45.028;38.968;2023-08-06T17:18:57;35.50;41.60
49385;DHT22;36795;45.028;38.968;2023-08-06T17:21:43;35.50;41.50
49385;DHT22;36795;45.028;38.968;2023-08-06T17:24:29;35.50;41.40
49385;DHT22;36795;45.028;38.968;2023-08-06T17:27:16;35.40;41.30
49385;DHT22;36795;45.028;38.968;2023-08-06T17:30:02;35.40;41.20
49385;DHT22;36795;45.028;38.968;2023-08-06T17:32:49;35.40;41.00
49385;DHT22;36795;45.028;38.968;2023-08-06T17:35:35;35.30;40.70
49385;DHT22;36795;45.028;38.968;2023-08-06T17:38:21;35.30;40.50
49385;DHT22;36795;45.028;38.968;2023-08-06T17:41:07;35.30;40.40